Time;durP1;ratioP1;P1;durP2;ratioP2;P2;SDS_P1;SDS_P2;PMS_P1;PMS_P2;Temp;Humidity;BMP_temperature;BMP_pressure;BME280_temperature;BME280_humidity;BME280_pressure;Samples;Min_cycle;Max_cycle;Signal;HPM_P1;HPM_P2
2022/07/06 00:02:21;;;;;;;5.03;1.20;;;;;;;12.30;100.00;102526.06;2614342;36;20065;-56
2022/07/06 00:04:49;;;;;;;4.47;1.50;;;;;;;12.32;100.00;102528.66;2615055;36;20035;-58
2022/07/06 00:07:22;;;;;;;4.38;1.30;;;;;;;12.26;100.00;102529.94;2614313;36;20050;-59
2022/07/06 00:09:50;;;;;;;5.68;1.42;;;;;;;12.31;100.00;102526.91;2614657;36;20158;-55
2022/07/06 00:12:19;;;;;;;5.80;1.40;;;;;;;12.32;100.00;102524.09;2614006;36;20059;-52
2022/07/06 00:14:47;;;;;;;2.38;1.20;;;;;;;12.37;100.00;102529.22;2614761;36;20072;-57
2022/07/06 00:17:15;;;;;;;5.20;1.33;;;;;;;12.40;100.00;102521.75;2615808;31;20477;-57
2022/07/06 00:19:43;;;;;;;5.35;1.30;;;;;;;12.41;100.00;102519.91;2614500;36;20070;-57
2022/07/06 00:22:12;;;;;;;3.35;1.35;;;;;;;12.49;100.00;102514.84;2614739;36;20046;-56
2022/07/06 00:24:42;;;;;;;6.95;1.52;;;;;;;12.61;100.00;102518.50;2614773;36;20166;-54
2022/07/06 00:27:11;;;;;;;3.53;1.42;;;;;;;12.70;100.00;102517.00;2614305;31;20039;-53
2022/07/06 00:29:43;;;;;;;6.50;1.70;;;;;;;12.78;100.00;102514.63;2614086;36;20560;-54
2022/07/06 00:32:11;;;;;;;4.00;1.50;;;;;;;12.88;100.00;102515.69;2614496;36;20103;-56
2022/07/06 00:34:41;;;;;;;7.07;1.70;;;;;;;12.99;100.00;102514.91;2614660;36;20496;-58
2022/07/06 00:37:09;;;;;;;3.42;1.35;;;;;;;13.10;100.00;102519.53;2614626;36;20031;-53
2022/07/06 00:39:37;;;;;;;4.20;1.30;;;;;;;13.16;100.00;102510.94;2614538;36;20067;-56
2022/07/06 00:42:09;;;;;;;3.93;1.20;;;;;;;13.16;100.00;102510.94;2613468;36;20046;-54
2022/07/06 00:44:37;;;;;;;3.65;1.20;;;;;;;13.11;100.00;102508.59;2614858;36;20129;-59
2022/07/06 00:47:07;;;;;;;8.00;1.70;;;;;;;13.17;100.00;102504.59;2614559;36;20542;-57
2022/07/06 00:52:17;;;;;;;4.45;1.30;;;;;;;13.05;100.00;102510.91;2614160;36;20039;-52
2022/07/06 00:54:45;;;;;;;3.70;1.45;;;;;;;12.97;100.00;102519.56;2614420;31;20848;-54
2022/07/06 00:57:17;;;;;;;3.40;1.23;;;;;;;12.96;100.00;102507.88;2614323;36;20097;-53
2022/07/06 00:59:45;;;;;;;2.30;1.05;;;;;;;12.89;100.00;102509.28;2614455;36;20065;-58
2022/07/06 01:02:13;;;;;;;3.37;1.30;;;;;;;12.78;100.00;102520.03;2614384;36;20038;-55
2022/07/06 01:04:42;;;;;;;4.70;1.17;;;;;;;12.74;100.00;102518.50;2614657;36;20153;-55
2022/07/06 01:07:10;;;;;;;8.13;1.43;;;;;;;12.64;100.00;102517.44;2613558;36;20030;-53
2022/07/06 01:09:39;;;;;;;3.67;1.35;;;;;;;12.61;100.00;102524.78;2613655;36;20089;-55
2022/07/06 01:12:08;;;;;;;4.57;1.90;;;;;;;12.56;100.00;102526.09;2614003;36;20519;-58
2022/07/06 01:14:39;;;;;;;5.53;1.55;;;;;;;12.52;100.00;102529.97;2614383;36;20435;-54
2022/07/06 01:17:08;;;;;;;4.63;1.40;;;;;;;12.54;100.00;102530.72;2608507;36;20051;-58
2022/07/06 01:19:36;;;;;;;6.43;1.40;;;;;;;12.41;100.00;102528.88;2613644;36;20552;-56
2022/07/06 01:22:07;;;;;;;5.43;1.60;;;;;;;12.30;100.00;102531.47;2613893;31;20767;-56
2022/07/06 01:24:37;;;;;;;5.13;1.73;;;;;;;12.27;100.00;102521.72;2614170;36;20030;-56
2022/07/06 01:27:06;;;;;;;8.02;1.90;;;;;;;12.21;100.00;102522.16;2614763;36;20428;-54
2022/07/06 01:29:35;;;;;;;5.15;1.83;;;;;;;12.16;100.00;102529.72;2614360;36;20046;-53
2022/07/06 01:32:04;;;;;;;2.97;1.75;;;;;;;12.22;100.00;102529.31;2614483;36;20059;-58
2022/07/06 01:34:32;;;;;;;7.43;1.95;;;;;;;12.21;100.00;102532.97;2614274;36;20067;-55
2022/07/06 01:37:00;;;;;;;5.03;1.92;;;;;;;12.22;100.00;102518.50;2614161;36;20133;-57
2022/07/06 01:39:31;;;;;;;8.45;2.15;;;;;;;12.29;100.00;102520.78;2613841;36;20132;-55
2022/07/06 01:41:59;;;;;;;6.60;2.22;;;;;;;12.36;100.00;102519.38;2614723;36;20140;-56
2022/07/06 01:44:27;;;;;;;3.05;1.80;;;;;;;12.40;100.00;102507.41;2615458;36;20061;-58
2022/07/06 01:46:56;;;;;;;3.70;1.75;;;;;;;12.43;100.00;102509.88;2615186;36;20039;-54
2022/07/06 01:49:24;;;;;;;5.80;1.83;;;;;;;12.47;100.00;102511.41;2615212;36;20551;-53
2022/07/06 01:51:52;;;;;;;7.70;2.13;;;;;;;12.40;100.00;102504.69;2614514;36;20062;-56
2022/07/06 01:54:21;;;;;;;5.30;1.70;;;;;;;12.36;100.00;102505.88;2615114;36;20263;-58
2022/07/06 01:56:52;;;;;;;3.58;1.92;;;;;;;12.26;100.00;102509.22;2614833;36;20055;-54
2022/07/06 01:59:20;;;;;;;7.57;1.92;;;;;;;12.22;100.00;102507.72;2614249;36;20555;-59
2022/07/06 02:01:48;;;;;;;5.30;1.77;;;;;;;12.24;100.00;102507.59;2614846;36;20039;-56
2022/07/06 02:04:16;;;;;;;4.85;1.80;;;;;;;12.22;100.00;102513.09;2614471;36;20069;-57
2022/07/06 02:06:45;;;;;;;4.75;2.08;;;;;;;12.17;100.00;102509.84;2614898;36;20558;-58
2022/07/06 02:09:13;;;;;;;6.32;2.08;;;;;;;12.09;100.00;102514.94;2615456;36;20087;-56
2022/07/06 02:11:41;;;;;;;4.63;1.65;;;;;;;12.11;100.00;102512.97;2614148;36;20164;-56
2022/07/06 02:14:12;;;;;;;4.65;1.63;;;;;;;12.07;100.00;102512.34;2614507;36;20085;-56
2022/07/06 02:16:40;;;;;;;6.65;1.75;;;;;;;11.99;100.00;102513.81;2615123;36;20034;-53
2022/07/06 02:19:08;;;;;;;5.13;1.55;;;;;;;12.00;100.00;102512.84;2614644;36;20121;-55
2022/07/06 02:21:37;;;;;;;7.82;1.60;;;;;;;11.96;100.00;102506.78;2614502;36;20071;-58
2022/07/06 02:24:06;;;;;;;5.25;1.73;;;;;;;11.91;100.00;102509.78;2614830;31;20110;-57
2022/07/06 02:26:34;;;;;;;4.70;2.50;;;;;;;11.81;100.00;102508.69;2614637;36;20845;-53
2022/07/06 02:29:02;;;;;;;8.32;1.58;;;;;;;11.78;100.00;102506.19;2615394;36;20030;-54
2022/07/06 02:31:33;;;;;;;8.10;2.13;;;;;;;11.82;100.00;102507.72;2615127;36;20042;-54
2022/07/06 02:34:01;;;;;;;5.57;1.63;;;;;;;11.66;100.00;102501.59;2613868;36;20074;-54
2022/07/06 02:36:29;;;;;;;9.38;2.20;;;;;;;11.67;100.00;102506.03;2614959;36;20535;-56
2022/07/06 02:38:58;;;;;;;8.07;2.17;;;;;;;11.71;100.00;102507.56;2614666;36;20041;-55
2022/07/06 02:41:26;;;;;;;4.53;1.90;;;;;;;11.66;100.00;102504.28;2614221;36;20042;-59
2022/07/06 02:43:54;;;;;;;7.22;1.92;;;;;;;11.55;100.00;102511.28;2614433;36;20042;-56
2022/07/06 02:46:22;;;;;;;4.63;2.00;;;;;;;11.60;100.00;102504.72;2614336;36;20067;-56
2022/07/06 02:48:53;;;;;;;9.18;2.30;;;;;;;11.55;100.00;102515.81;2613175;36;20550;-54
2022/07/06 02:51:23;;;;;;;4.72;1.88;;;;;;;11.55;100.00;102513.13;2615189;36;20141;-55
2022/07/06 02:53:51;;;;;;;5.25;1.92;;;;;;;11.57;100.00;102514.75;2614297;36;20044;-56
2022/07/06 02:56:20;;;;;;;3.80;1.95;;;;;;;11.67;100.00;102519.53;2613556;36;20046;-53
2022/07/06 02:58:48;;;;;;;11.82;2.83;;;;;;;11.77;100.00;102517.94;2614972;36;20425;-53
2022/07/06 03:01:16;;;;;;;7.72;2.40;;;;;;;11.78;100.00;102516.97;2614625;36;20085;-54
2022/07/06 03:03:44;;;;;;;6.40;2.30;;;;;;;11.90;100.00;102526.94;2611086;36;20627;-59
2022/07/06 03:06:15;;;;;;;5.95;2.30;;;;;;;12.04;100.00;102522.47;2613345;36;20034;-53
2022/07/06 03:08:43;;;;;;;7.22;2.67;;;;;;;12.04;100.00;102517.94;2615064;31;20042;-59
2022/07/06 03:11:12;;;;;;;3.90;2.10;;;;;;;12.04;100.00;102523.34;2614587;31;20038;-59
2022/07/06 03:13:40;;;;;;;6.57;2.05;;;;;;;12.16;100.00;102510.84;2614965;36;20038;-55
2022/07/06 03:16:08;;;;;;;9.70;2.08;;;;;;;12.22;100.00;102513.09;2614340;36;20038;-55
2022/07/06 03:18:36;;;;;;;5.72;1.83;;;;;;;12.29;100.00;102512.66;2614010;36;20085;-58
2022/07/06 03:21:05;;;;;;;5.13;2.00;;;;;;;12.35;100.00;102523.03;2608385;36;20082;-58
2022/07/06 03:23:36;;;;;;;6.15;1.77;;;;;;;12.43;100.00;102521.53;2615027;36;20034;-56
2022/07/06 03:26:04;;;;;;;2.97;1.70;;;;;;;12.43;100.00;102521.53;2612995;36;20142;-52
2022/07/06 03:28:32;;;;;;;3.58;1.60;;;;;;;12.48;100.00;102515.81;2615183;36;20063;-53
2022/07/06 03:31:00;;;;;;;5.32;1.92;;;;;;;12.55;100.00;102514.41;2615272;36;20051;-55
2022/07/06 03:33:29;;;;;;;2.58;1.52;;;;;;;12.61;100.00;102522.06;2614268;36;20061;-58
2022/07/06 03:35:57;;;;;;;4.55;1.60;;;;;;;12.65;100.00;102519.16;2613905;36;20082;-53
2022/07/06 03:38:25;;;;;;;3.85;1.83;;;;;;;12.69;100.00;102518.84;2613996;36;20079;-57
2022/07/06 03:40:56;;;;;;;5.97;2.03;;;;;;;12.72;100.00;102520.44;2614675;31;20086;-58
2022/07/06 03:43:24;;;;;;;3.80;1.65;;;;;;;12.78;100.00;102536.25;2613790;36;20063;-52
2022/07/06 03:45:53;;;;;;;2.70;1.80;;;;;;;12.82;100.00;102531.47;2615338;31;20042;-56
2022/07/06 03:48:21;;;;;;;6.27;1.83;;;;;;;12.82;100.00;102521.50;2613618;36;20101;-58
2022/07/06 03:50:49;;;;;;;7.90;1.70;;;;;;;12.84;100.00;102514.19;2613882;36;20063;-57
2022/07/06 03:53:18;;;;;;;5.60;1.50;;;;;;;12.89;100.00;102522.81;2613686;36;20034;-59
2022/07/06 03:56:27;;;;;;;6.30;1.50;;;;;;;12.94;100.00;102519.75;2614763;36;20611;-56
2022/07/06 03:58:37;;;;;;;3.28;1.65;;;;;;;12.96;100.00;102518.69;2614046;36;20038;-53
2022/07/06 04:01:05;;;;;;;4.18;1.88;;;;;;;12.98;100.00;102510.47;2614888;36;20081;-52
2022/07/06 04:03:33;;;;;;;3.15;1.55;;;;;;;13.06;100.00;102512.59;2614561;36;20544;-53
2022/07/06 04:06:02;;;;;;;6.15;2.00;;;;;;;12.96;100.00;102513.28;2614315;36;20081;-53
2022/07/06 04:08:30;;;;;;;3.93;1.90;;;;;;;13.07;100.00;102511.63;2613633;36;20090;-57
2022/07/06 04:10:58;;;;;;;6.03;1.90;;;;;;;13.10;100.00;102520.41;2615738;31;20521;-52
2022/07/06 04:13:27;;;;;;;4.22;1.85;;;;;;;13.13;100.00;102513.88;2614539;36;20586;-54
2022/07/06 04:15:58;;;;;;;4.13;1.48;;;;;;;13.11;100.00;102516.69;2613378;31;20037;-55
2022/07/06 04:18:27;;;;;;;3.25;1.70;;;;;;;13.10;100.00;102514.13;2614407;36;20047;-57
2022/07/06 04:20:57;;;;;;;6.28;1.60;;;;;;;13.11;100.00;102518.56;2614527;36;20034;-56
2022/07/06 04:23:25;;;;;;;2.95;1.40;;;;;;;13.16;100.00;102508.25;2613892;36;20034;-54
2022/07/06 04:25:53;;;;;;;5.82;1.60;;;;;;;13.30;100.00;102515.34;2615413;31;20408;-54
2022/07/06 04:28:21;;;;;;;4.03;1.57;;;;;;;13.29;100.00;102522.63;2613838;31;20039;-56
2022/07/06 04:30:50;;;;;;;5.10;1.50;;;;;;;13.40;100.00;102508.31;2615083;36;20034;-55
2022/07/06 04:33:21;;;;;;;6.65;1.85;;;;;;;13.39;100.00;102505.75;2614677;36;20142;-57
2022/07/06 04:35:49;;;;;;;5.05;1.77;;;;;;;13.45;100.00;102508.84;2614002;36;20134;-56
2022/07/06 04:38:17;;;;;;;5.13;1.60;;;;;;;13.52;100.00;102519.22;2613718;31;20034;-57
2022/07/06 04:40:46;;;;;;;2.30;1.70;;;;;;;13.60;100.00;102506.84;2614964;36;20089;-57
2022/07/06 04:43:14;;;;;;;4.93;2.10;;;;;;;13.53;100.00;102518.22;2614228;31;20057;-53
2022/07/06 04:45:42;;;;;;;4.10;1.40;;;;;;;13.69;100.00;102517.94;2614664;36;20038;-58
2022/07/06 04:48:11;;;;;;;4.40;1.73;;;;;;;13.97;100.00;102512.16;2614602;31;20086;-56
2022/07/06 04:50:42;;;;;;;6.25;2.17;;;;;;;14.05;100.00;102518.84;2612593;31;20064;-56
2022/07/06 04:53:10;;;;;;;4.32;1.67;;;;;;;13.96;100.00;102514.97;2614708;31;20533;-55
2022/07/06 04:55:38;;;;;;;4.00;1.65;;;;;;;13.96;100.00;102517.69;2614222;36;20067;-58
2022/07/06 04:58:06;;;;;;;5.22;1.73;;;;;;;14.10;100.00;102524.75;2614344;36;20034;-54
2022/07/06 05:00:35;;;;;;;5.82;1.92;;;;;;;14.33;100.00;102521.09;2613684;36;20046;-54
2022/07/06 05:03:03;;;;;;;3.95;1.25;;;;;;;14.55;100.00;102519.41;2613798;36;20146;-55
2022/07/06 05:05:31;;;;;;;5.25;1.75;;;;;;;14.70;100.00;102520.06;2613827;36;20582;-53
2022/07/06 05:08:02;;;;;;;2.30;1.10;;;;;;;14.78;100.00;102524.88;2613668;36;20034;-57
2022/07/06 05:10:31;;;;;;;3.50;1.20;;;;;;;14.81;100.00;102511.06;2614940;36;20147;-57
2022/07/06 05:12:59;;;;;;;3.47;1.27;;;;;;;15.00;100.00;102518.59;2613330;36;20122;-59
2022/07/06 05:15:28;;;;;;;3.47;1.05;;;;;;;14.97;100.00;102519.72;2614768;36;20043;-60
2022/07/06 05:17:56;;;;;;;7.30;1.60;;;;;;;14.85;100.00;102520.69;2615377;36;20030;-57
2022/07/06 05:20:24;;;;;;;3.75;1.50;;;;;;;14.83;100.00;102523.53;2613258;31;21563;-59
2022/07/06 05:22:52;;;;;;;3.97;1.83;;;;;;;14.87;100.00;102529.59;2614256;36;20061;-57
2022/07/06 05:25:23;;;;;;;4.35;1.40;;;;;;;14.87;100.00;102519.59;2613824;36;20034;-55
2022/07/06 05:27:52;;;;;;;3.55;1.23;;;;;;;15.00;100.00;102522.19;2614885;31;20062;-59
2022/07/06 05:30:20;;;;;;;4.97;1.20;;;;;;;14.94;100.00;102522.66;2614064;36;20067;-59
2022/07/06 05:32:48;;;;;;;3.53;1.43;;;;;;;14.92;100.00;102527.34;2614661;36;20085;-57
2022/07/06 05:35:17;;;;;;;3.85;1.00;;;;;;;15.09;100.00;102530.53;2615177;36;20030;-57
2022/07/06 05:37:45;;;;;;;4.68;1.20;;;;;;;15.09;100.00;102530.53;2613626;36;20046;-56
2022/07/06 05:40:14;;;;;;;4.33;1.27;;;;;;;15.15;100.00;102528.19;2612897;36;20030;-57
2022/07/06 05:42:45;;;;;;;3.17;0.98;;;;;;;15.21;100.00;102522.25;2613771;36;20106;-56
2022/07/06 05:45:14;;;;;;;2.95;1.27;;;;;;;15.09;100.00;102533.25;2614692;31;20166;-54
2022/07/06 05:50:23;;;;;;;3.25;0.90;;;;;;;15.26;100.00;102537.31;2613766;36;20532;-56
2022/07/06 05:52:59;;;;;;;5.35;1.42;;;;;;;15.44;100.00;102537.63;2613693;36;20058;-54
2022/07/06 05:55:27;;;;;;;5.30;1.10;;;;;;;15.49;100.00;102538.97;2614163;36;20031;-57
2022/07/06 05:57:58;;;;;;;3.47;1.13;;;;;;;15.50;100.00;102534.41;2614986;36;20078;-57
2022/07/06 06:00:29;;;;;;;2.90;0.90;;;;;;;15.49;100.00;102536.28;2614607;31;20521;-54
2022/07/06 06:02:57;;;;;;;4.47;1.33;;;;;;;15.56;100.00;102532.06;2607236;36;20558;-54
2022/07/06 06:05:25;;;;;;;5.77;1.20;;;;;;;15.66;100.00;102532.13;2614930;31;20035;-56
2022/07/06 06:07:53;;;;;;;3.38;1.05;;;;;;;15.88;100.00;102524.94;2614823;36;20037;-57
2022/07/06 06:10:23;;;;;;;5.27;1.00;;;;;;;16.05;100.00;102532.50;2614201;36;20081;-58
2022/07/06 06:12:51;;;;;;;;;;;;;;;16.14;100.00;102530.00;2616025;36;20412;-54
2022/07/06 06:15:22;;;;;;;3.55;1.00;;;;;;;16.45;100.00;102533.63;2614855;36;20099;-58
2022/07/06 06:17:50;;;;;;;2.97;0.93;;;;;;;16.34;100.00;102529.16;2615206;36;20038;-54
2022/07/06 06:20:18;;;;;;;1.97;0.90;;;;;;;16.40;100.00;102536.75;2614840;36;20030;-57
2022/07/06 06:22:49;;;;;;;3.77;1.20;;;;;;;16.42;100.00;102529.31;2615487;31;20530;-56
2022/07/06 06:25:18;;;;;;;2.42;0.77;;;;;;;16.90;100.00;102537.88;2615059;31;20042;-54
2022/07/06 06:27:46;;;;;;;3.95;1.20;;;;;;;16.84;100.00;102536.53;2613772;36;20073;-54
2022/07/06 06:30:16;;;;;;;3.75;0.90;;;;;;;16.77;100.00;102535.38;2614642;31;20038;-57
2022/07/06 06:32:46;;;;;;;3.67;0.82;;;;;;;17.02;100.00;102539.53;2615367;36;20540;-61
2022/07/06 06:35:15;;;;;;;3.85;0.70;;;;;;;17.61;100.00;102531.50;2615656;31;20428;-54
2022/07/06 06:37:43;;;;;;;5.00;1.00;;;;;;;17.70;100.00;102530.66;2614943;36;20038;-58
2022/07/06 06:40:13;;;;;;;5.63;1.07;;;;;;;17.85;100.00;102529.22;2614726;36;20307;-56
2022/07/06 06:42:41;;;;;;;1.73;0.80;;;;;;;17.82;100.00;102536.81;2614372;36;20041;-55
2022/07/06 06:45:11;;;;;;;2.80;0.80;;;;;;;17.26;100.00;102538.31;2615005;36;20046;-54
2022/07/06 06:47:39;;;;;;;2.38;0.80;;;;;;;17.66;100.00;102535.50;2615337;36;20054;-56
2022/07/06 06:50:10;;;;;;;3.03;0.80;;;;;;;17.20;100.00;102537.00;2614593;36;20030;-56
2022/07/06 06:52:39;;;;;;;2.72;0.68;;;;;;;17.62;100.00;102535.94;2614318;36;20304;-56
2022/07/06 06:55:08;;;;;;;4.73;0.70;;;;;;;17.40;100.00;102534.31;2614497;36;20034;-57
2022/07/06 06:57:36;;;;;;;1.35;0.73;;;;;;;17.58;100.00;102543.53;2614151;36;20082;-54
2022/07/06 07:00:05;;;;;;;3.73;0.93;;;;;;;17.50;100.00;102541.53;2615394;36;20464;-60
2022/07/06 07:02:33;;;;;;;;;;;;;;;18.16;100.00;102539.97;2615045;36;20035;-57
2022/07/06 07:05:01;;;;;;;5.55;1.00;;;;;;;17.95;100.00;102542.03;2615539;36;19951;-57
2022/07/06 07:07:32;;;;;;;4.20;0.90;;;;;;;18.18;100.00;102543.44;2615129;36;20034;-60
2022/07/06 07:10:03;;;;;;;3.42;0.90;;;;;;;18.61;100.00;102537.59;2614888;36;20303;-57
2022/07/06 07:12:31;;;;;;;1.50;0.80;;;;;;;18.78;100.00;102545.00;2614713;36;20035;-54
2022/07/06 07:14:59;;;;;;;1.47;0.60;;;;;;;18.52;100.00;102545.66;2614551;36;20035;-55
2022/07/06 07:17:27;;;;;;;1.63;0.80;;;;;;;18.42;100.00;102550.28;2615008;31;20074;-55
2022/07/06 07:19:56;;;;;;;2.00;0.90;;;;;;;18.64;100.00;102540.91;2615186;36;20287;-57
2022/07/06 07:22:24;;;;;;;;;;;;;;;18.27;100.00;102547.16;2614899;36;20041;-58
2022/07/06 07:24:55;;;;;;;2.47;0.93;;;;;;;18.05;100.00;102551.06;2614945;36;19987;-56
2022/07/06 07:27:23;;;;;;;2.47;1.17;;;;;;;17.82;100.00;102545.84;2615702;31;20509;-55
2022/07/06 07:29:53;;;;;;;4.83;1.20;;;;;;;17.99;100.00;102551.59;2613794;36;20070;-57
2022/07/06 07:32:21;;;;;;;4.85;1.10;;;;;;;18.38;100.00;102548.84;2615153;36;20030;-57
2022/07/06 07:34:53;;;;;;;1.73;0.70;;;;;;;19.00;100.00;102545.66;2616041;54;20041;-57
2022/07/06 07:37:21;;;;;;;3.58;0.70;;;;;;;19.47;100.00;102547.44;2615702;36;20105;-55
2022/07/06 07:39:49;;;;;;;3.57;0.90;;;;;;;19.23;100.00;102549.72;2615452;36;20138;-58
2022/07/06 07:42:20;;;;;;;4.43;0.90;;;;;;;19.36;100.00;102545.75;2614539;36;20068;-57
2022/07/06 07:44:48;;;;;;;3.13;1.13;;;;;;;19.39;100.00;102545.44;2613847;36;20182;-57
2022/07/06 07:47:16;;;;;;;5.33;1.53;;;;;;;19.89;100.00;102542.25;2615410;36;20062;-58
2022/07/06 07:49:45;;;;;;;1.90;0.85;;;;;;;19.04;100.00;102552.56;2614597;36;20295;-60
2022/07/06 07:52:13;;;;;;;3.77;1.00;;;;;;;19.45;100.00;102550.31;2614251;31;20058;-54
2022/07/06 07:54:41;;;;;;;2.95;0.80;;;;;;;19.53;100.00;102555.00;2615047;36;20038;-56
2022/07/06 07:57:10;;;;;;;3.90;0.60;;;;;;;19.34;100.00;102545.91;2614851;36;20089;-57
2022/07/06 07:59:42;;;;;;;2.63;0.90;;;;;;;19.77;100.00;102548.91;2614292;36;20303;-56
2022/07/06 08:02:10;;;;;;;1.92;0.68;;;;;;;20.26;100.00;102546.66;2614805;36;20068;-58
2022/07/06 08:04:38;;;;;;;1.40;0.77;;;;;;;19.86;100.00;102544.44;2614276;36;20040;-57
2022/07/06 08:07:10;;;;;;;3.70;0.88;;;;;;;19.86;100.00;102541.69;2614596;36;20081;-58
2022/07/06 08:09:38;;;;;;;1.95;0.60;;;;;;;19.26;100.00;102543.94;2614727;36;20061;-56
2022/07/06 08:12:06;;;;;;;1.30;0.63;;;;;;;19.53;100.00;102549.53;2614081;36;20046;-59
2022/07/06 08:14:37;;;;;;;2.67;0.60;;;;;;;19.98;100.00;102551.38;2615169;31;20758;-56
2022/07/06 08:17:08;;;;;;;1.67;0.50;;;;;;;20.47;93.62;102548.19;2615226;36;20030;-58
2022/07/06 08:19:36;;;;;;;1.13;0.60;;;;;;;20.39;95.76;102542.63;2614296;36;20034;-59
2022/07/06 08:22:06;;;;;;;2.22;0.65;;;;;;;21.10;100.00;102543.44;2614664;31;20550;-55
2022/07/06 08:24:35;;;;;;;2.17;0.50;;;;;;;20.63;100.00;102547.44;2615178;36;20030;-57
2022/07/06 08:27:04;;;;;;;;;;;;;;;20.96;100.00;102555.84;2615415;36;20029;-55
2022/07/06 08:29:33;;;;;;;2.40;0.60;;;;;;;21.21;93.98;102543.09;2614432;36;19995;-57
2022/07/06 08:32:01;;;;;;;1.83;0.63;;;;;;;21.69;83.25;102544.31;2614784;36;20042;-56
2022/07/06 08:34:32;;;;;;;1.95;0.50;;;;;;;21.46;88.59;102551.41;2614238;36;20034;-56
2022/07/06 08:37:00;;;;;;;2.80;0.60;;;;;;;21.07;88.32;102546.47;2614624;36;20083;-60
2022/07/06 08:39:28;;;;;;;3.10;0.68;;;;;;;20.74;81.90;102547.16;2614758;36;20030;-57
2022/07/06 08:41:59;;;;;;;1.58;0.60;;;;;;;21.80;84.83;102536.78;2613897;36;20054;-59
2022/07/06 08:44:28;;;;;;;1.67;0.80;;;;;;;22.40;79.61;102535.59;2613518;31;20080;-57
2022/07/06 08:46:57;;;;;;;;;;;;;;;21.66;80.77;102530.09;2615076;36;20072;-60
2022/07/06 08:49:26;;;;;;;3.17;0.70;;;;;;;20.78;87.04;102539.50;2614418;36;20508;-59
2022/07/06 08:51:57;;;;;;;2.63;0.75;;;;;;;20.42;95.10;102534.13;2614551;36;20164;-59
2022/07/06 08:54:26;;;;;;;1.80;0.80;;;;;;;21.23;86.78;102535.59;2614674;31;20042;-58
2022/07/06 08:56:55;;;;;;;2.65;0.80;;;;;;;21.07;90.29;102536.41;2614845;36;20163;-53
2022/07/06 08:59:23;;;;;;;1.58;0.80;;;;;;;20.68;89.03;102541.50;2615077;31;20531;-55
2022/07/06 09:01:51;;;;;;;5.00;0.95;;;;;;;19.66;95.04;102535.50;2615235;36;20099;-58
2022/07/06 09:04:24;;;;;;;1.80;0.80;;;;;;;19.88;100.00;102535.06;2614462;36;20165;-60
2022/07/06 09:06:53;;;;;;;3.75;0.90;;;;;;;19.82;100.00;102541.16;2614732;36;20070;-56
2022/07/06 09:09:26;;;;;;;2.33;0.70;;;;;;;20.15;100.00;102535.13;2614854;36;20085;-60
2022/07/06 09:11:55;;;;;;;2.63;0.73;;;;;;;20.41;100.00;102548.81;2614338;36;20030;-59
2022/07/06 09:14:23;;;;;;;2.22;0.80;;;;;;;20.77;96.54;102537.78;2612218;36;20046;-56
2022/07/06 09:16:55;;;;;;;2.58;0.93;;;;;;;21.68;88.19;102533.50;2613382;36;20559;-58
2022/07/06 09:19:23;;;;;;;3.35;0.73;;;;;;;21.66;76.81;102539.16;2614095;36;20174;-57
2022/07/06 09:21:51;;;;;;;6.68;0.77;;;;;;;20.17;84.01;102544.88;2614609;36;20038;-56
2022/07/06 09:24:20;;;;;;;8.73;0.80;;;;;;;20.97;90.87;102546.63;2614298;36;20134;-58
2022/07/06 09:26:51;;;;;;;5.70;0.60;;;;;;;21.26;88.95;102545.34;2614877;36;20050;-57
2022/07/06 09:29:19;;;;;;;2.88;0.70;;;;;;;21.29;78.44;102545.00;2614749;36;20057;-59
2022/07/06 09:31:58;;;;;;;4.68;1.02;;;;;;;22.00;74.38;102540.91;2615124;36;20427;-53
2022/07/06 09:34:26;;;;;;;13.07;0.88;;;;;;;21.21;83.72;102548.59;2614361;36;20055;-58
2022/07/06 09:36:55;;;;;;;2.53;0.90;;;;;;;20.60;92.40;102551.34;2614348;36;20397;-58
2022/07/06 09:39:25;;;;;;;1.98;0.80;;;;;;;20.92;96.63;102544.38;2613134;36;20042;-56
2022/07/06 09:42:00;;;;;;;2.13;0.73;;;;;;;20.90;95.83;102540.94;2613635;31;20084;-58
2022/07/06 09:44:29;;;;;;;2.75;0.70;;;;;;;20.88;92.30;102540.25;2613296;36;20034;-57
2022/07/06 09:46:59;;;;;;;3.08;1.00;;;;;;;21.12;86.91;102549.59;2613710;36;20607;-57
2022/07/06 09:49:27;;;;;;;3.67;0.70;;;;;;;21.67;87.42;102543.63;2613980;36;20042;-58
2022/07/06 09:51:58;;;;;;;1.90;0.70;;;;;;;21.46;77.95;102551.41;2613247;36;20162;-56
2022/07/06 09:54:27;;;;;;;3.00;1.00;;;;;;;21.70;82.75;102553.38;2613462;31;20162;-60
2022/07/06 09:56:58;;;;;;;;;;;;;;;21.56;83.01;102551.31;2613564;36;20431;-57
2022/07/06 09:59:28;;;;;;;8.15;0.88;;;;;;;22.06;77.17;102547.59;2613395;36;19938;-59
2022/07/06 10:01:59;;;;;;;2.08;0.90;;;;;;;21.14;71.35;102556.63;2613667;36;20039;-57
2022/07/06 10:04:29;;;;;;;0.60;0.50;;;;;;;21.27;75.98;102556.13;2614009;36;20182;-58
2022/07/06 10:06:58;;;;;;;4.13;0.70;;;;;;;20.94;83.56;102550.53;2593803;36;20038;-57
2022/07/06 10:09:28;;;;;;;2.50;0.85;;;;;;;20.91;86.58;102558.22;2614605;36;20125;-58
2022/07/06 10:12:01;;;;;;;3.85;0.82;;;;;;;21.40;86.48;102541.13;2614172;36;20568;-56
2022/07/06 10:14:32;;;;;;;1.73;0.60;;;;;;;21.67;75.45;102549.09;2614459;31;20538;-58
2022/07/06 10:17:01;;;;;;;1.80;0.95;;;;;;;21.53;74.46;102538.78;2614778;36;20145;-56
2022/07/06 10:19:32;;;;;;;3.00;0.70;;;;;;;21.26;78.82;102550.81;2614751;36;20053;-58
2022/07/06 10:22:02;;;;;;;5.07;0.85;;;;;;;21.29;85.84;102545.88;2614423;36;20047;-58
2022/07/06 10:24:34;;;;;;;2.72;0.70;;;;;;;21.53;90.27;102536.06;2613749;36;20082;-57
2022/07/06 10:27:06;;;;;;;1.92;0.52;;;;;;;22.09;76.91;102539.00;2614080;36;20034;-57
2022/07/06 10:29:34;;;;;;;0.85;0.60;;;;;;;21.73;92.26;102539.34;2614918;36;20130;-60
2022/07/06 10:32:04;;;;;;;2.97;0.73;;;;;;;22.11;77.81;102534.19;2615365;36;20427;-53
2022/07/06 10:34:32;;;;;;;3.22;0.70;;;;;;;22.02;77.79;102533.34;2614774;36;20138;-57
2022/07/06 10:37:01;;;;;;;5.00;0.70;;;;;;;22.37;74.00;102536.78;2614493;36;20055;-59
2022/07/06 10:42:49;;;;;;;2.70;0.47;;;;;;;22.73;72.87;102525.41;2614148;36;20034;-60
2022/07/06 10:45:23;;;;;;;5.73;1.17;;;;;;;22.05;74.28;102529.41;2615092;36;20428;-58
2022/07/06 10:48:18;;;;;;;3.55;0.77;;;;;;;21.90;72.99;102518.28;2614296;36;20034;-60
2022/07/06 10:50:50;;;;;;;1.92;0.63;;;;;;;21.98;81.45;102521.03;2614196;31;20073;-59
2022/07/06 10:53:20;;;;;;;4.88;0.90;;;;;;;22.02;69.46;102525.13;2614037;31;20031;-59
2022/07/06 10:55:50;;;;;;;1.65;0.90;;;;;;;21.88;65.18;102517.59;2613840;36;20042;-58
2022/07/06 10:58:37;;;;;;;1.52;0.55;;;;;;;22.65;64.46;102511.69;2613985;36;20030;-56
2022/07/06 11:01:06;;;;;;;0.80;0.47;;;;;;;22.07;63.70;102523.75;2614683;36;20085;-58
2022/07/06 11:03:36;;;;;;;2.85;0.70;;;;;;;22.47;66.90;102516.56;2614266;36;20098;-58
2022/07/06 11:06:09;;;;;;;1.73;0.50;;;;;;;23.03;61.89;102511.91;2614307;36;20150;-57
2022/07/06 11:08:45;;;;;;;2.55;0.60;;;;;;;23.48;59.26;102514.09;2614304;36;20031;-60
2022/07/06 11:11:16;;;;;;;1.30;0.60;;;;;;;23.01;60.03;102519.47;2614048;36;20046;-59
2022/07/06 11:13:51;;;;;;;1.60;0.57;;;;;;;23.01;58.08;102511.22;2614002;36;20085;-57
2022/07/06 11:16:21;;;;;;;1.65;0.60;;;;;;;23.38;60.55;102506.94;2614590;36;20049;-58
2022/07/06 11:18:51;;;;;;;3.67;0.52;;;;;;;22.98;58.83;102500.59;2613925;31;20030;-57
2022/07/06 11:21:21;;;;;;;1.67;0.57;;;;;;;23.08;60.39;102494.88;2614519;36;20037;-57
2022/07/06 11:23:51;;;;;;;2.17;0.70;;;;;;;23.21;58.49;102483.34;2613635;36;20055;-58
2022/07/06 11:26:20;;;;;;;2.45;0.65;;;;;;;23.36;59.74;102486.16;2614097;36;20038;-57
2022/07/06 11:28:51;;;;;;;;;;;;;;;23.23;56.66;102484.88;2613984;36;20066;-58
2022/07/06 11:31:19;;;;;;;2.58;0.63;;;;;;;23.61;56.20;102473.09;2614305;36;19957;-58
2022/07/06 11:33:48;;;;;;;1.00;0.60;;;;;;;23.12;58.60;102481.69;2615710;31;20057;-60
2022/07/06 11:36:20;;;;;;;2.88;0.60;;;;;;;22.85;57.59;102470.09;2614644;36;20057;-57
2022/07/06 11:38:50;;;;;;;1.08;0.60;;;;;;;23.12;58.61;102466.06;2614807;36;20073;-58
2022/07/06 11:41:19;;;;;;;2.30;0.82;;;;;;;21.96;61.89;102462.75;2614733;36;20053;-56